createdAt,value
2022-11-20T02:04:26.495Z,2.22
2022-11-20T02:07:03.473Z,1.90
2022-11-20T02:09:29.942Z,2.40
2022-11-20T02:11:57.380Z,2.90
2022-11-20T02:14:25.003Z,2.25
2022-11-20T02:16:51.984Z,2.45
2022-11-20T02:19:28.592Z,3.25
2022-11-20T02:22:05.294Z,2.25
2022-11-20T02:24:32.296Z,1.58
2022-11-20T02:27:05.713Z,2.47
2022-11-20T02:29:34.773Z,2.88
2022-11-20T02:32:02.901Z,3.17
2022-11-20T02:34:29.783Z,2.53
2022-11-20T02:36:58.430Z,2.53
2022-11-20T02:39:27.389Z,3.05
2022-11-20T02:41:55.264Z,2.88
2022-11-20T02:44:21.654Z,2.38
2022-11-20T02:46:48.148Z,3.05
2022-11-20T02:49:14.689Z,2.75
2022-11-20T02:51:41.083Z,3.63
2022-11-20T02:54:07.571Z,4.65
2022-11-20T02:56:34.037Z,2.95
2022-11-20T02:59:00.431Z,4.45
2022-11-20T03:01:26.830Z,4.10
2022-11-20T03:03:55.395Z,3.05
2022-11-20T03:06:21.938Z,4.88
2022-11-20T03:08:48.572Z,3.03
2022-11-20T03:11:14.996Z,2.55
2022-11-20T03:13:41.440Z,3.72
2022-11-20T03:16:19.447Z,3.05
2022-11-20T03:18:46.534Z,3.72
2022-11-20T03:21:14.742Z,3.95
2022-11-20T03:23:41.510Z,3.88
2022-11-20T03:26:18.252Z,4.70
2022-11-20T03:28:50.451Z,4.03
2022-11-20T03:31:19.953Z,5.65
2022-11-20T03:33:46.408Z,4.03
2022-11-20T03:36:15.352Z,4.63
2022-11-20T03:38:42.132Z,4.88
2022-11-20T03:41:14.653Z,3.78
2022-11-20T03:43:41.165Z,4.20
2022-11-20T03:46:08.741Z,4.00
2022-11-20T03:48:35.680Z,3.70
2022-11-20T03:51:14.029Z,5.05
2022-11-20T03:53:41.914Z,6.43
2022-11-20T03:56:09.393Z,5.00
2022-11-20T03:58:38.176Z,5.20
2022-11-20T04:01:13.925Z,6.18
2022-11-20T04:03:41.934Z,5.28
2022-11-20T04:06:14.309Z,6.00
2022-11-20T04:08:41.722Z,7.63
2022-11-20T04:11:19.490Z,8.40
2022-11-20T04:13:54.554Z,6.55
2022-11-20T04:16:22.100Z,6.15
2022-11-20T04:18:51.938Z,6.55
2022-11-20T04:21:18.376Z,6.55
2022-11-20T04:23:44.843Z,8.65
2022-11-20T04:26:12.612Z,8.05
2022-11-20T04:28:39.920Z,5.97
2022-11-20T04:31:12.107Z,7.00
2022-11-20T04:33:38.631Z,8.40
2022-11-20T04:36:16.631Z,8.82
2022-11-20T04:38:43.883Z,6.55
2022-11-20T04:41:19.008Z,7.53
2022-11-20T04:43:52.685Z,8.13
2022-11-20T04:46:21.495Z,7.47
2022-11-20T04:48:48.803Z,8.23
2022-11-20T04:51:15.552Z,9.05
2022-11-20T04:53:42.779Z,8.75
2022-11-20T04:56:11.251Z,7.90
2022-11-20T04:58:37.901Z,8.05
2022-11-20T05:01:06.809Z,8.63
2022-11-20T05:03:35.507Z,10.80
2022-11-20T05:06:06.111Z,6.75
2022-11-20T05:08:33.588Z,10.55
2022-11-20T05:11:08.973Z,7.65
2022-11-20T05:13:35.589Z,10.32
2022-11-20T05:16:07.910Z,10.60
2022-11-20T05:18:35.758Z,8.23
2022-11-20T05:21:02.325Z,7.63
2022-11-20T05:23:30.897Z,7.45
2022-11-20T05:25:59.297Z,8.93
2022-11-20T05:28:26.850Z,8.13
2022-11-20T05:30:53.545Z,8.07
2022-11-20T05:33:20.373Z,9.90
2022-11-20T05:35:47.086Z,7.75
2022-11-20T05:38:13.713Z,9.35
2022-11-20T05:40:40.259Z,7.15
2022-11-20T05:43:06.833Z,8.18
2022-11-20T05:45:33.442Z,7.70
2022-11-20T05:48:03.701Z,9.00
2022-11-20T05:50:30.626Z,8.82
2022-11-20T05:53:00.486Z,9.82
2022-11-20T05:55:28.057Z,7.07
2022-11-20T05:57:55.975Z,10.35
2022-11-20T06:00:23.387Z,10.43
2022-11-20T06:02:50.178Z,9.35
2022-11-20T06:05:16.860Z,9.00
2022-11-20T06:07:43.623Z,10.00
2022-11-20T06:10:11.055Z,9.43
2022-11-20T06:12:37.596Z,8.98
2022-11-20T06:15:05.383Z,10.23
2022-11-20T06:17:31.968Z,9.00
2022-11-20T06:19:58.431Z,8.80
2022-11-20T06:22:24.943Z,9.45
2022-11-20T06:24:51.451Z,10.68
2022-11-20T06:27:17.912Z,9.40
2022-11-20T06:29:44.532Z,9.25
2022-11-20T06:32:11.038Z,10.50
2022-11-20T06:34:37.612Z,9.60
2022-11-20T06:37:04.160Z,7.65
2022-11-20T06:39:30.709Z,8.20
2022-11-20T06:41:59.243Z,9.50
2022-11-20T06:44:26.712Z,12.20
2022-11-20T06:46:53.233Z,10.20
2022-11-20T06:49:20.159Z,11.57
2022-11-20T06:51:47.033Z,12.00
2022-11-20T06:54:13.635Z,10.43
2022-11-20T06:56:40.110Z,11.85
2022-11-20T06:59:08.020Z,11.02
2022-11-20T07:01:34.786Z,11.80
2022-11-20T07:04:01.278Z,11.32
2022-11-20T07:06:27.836Z,11.13
2022-11-20T07:08:54.425Z,13.50
2022-11-20T07:11:21.026Z,10.45
2022-11-20T07:13:47.532Z,10.95
2022-11-20T07:16:14.127Z,12.52
2022-11-20T07:18:41.547Z,14.57
2022-11-20T07:21:11.036Z,14.38
2022-11-20T07:23:37.990Z,14.43
2022-11-20T07:26:06.933Z,15.80
2022-11-20T07:28:33.711Z,17.70
2022-11-20T07:31:00.496Z,17.35
2022-11-20T07:33:27.052Z,15.60
2022-11-20T07:35:53.790Z,17.88
2022-11-20T07:38:20.767Z,22.20
2022-11-20T07:40:47.351Z,14.32
2022-11-20T07:43:14.119Z,15.38
2022-11-20T07:45:41.073Z,16.02
2022-11-20T07:48:07.663Z,18.23
2022-11-20T07:50:34.250Z,18.35
2022-11-20T07:53:07.259Z,17.70
2022-11-20T07:55:34.412Z,17.83
2022-11-20T07:58:00.928Z,19.95
2022-11-20T08:00:28.512Z,17.42
2022-11-20T08:02:55.122Z,16.88
2022-11-20T08:05:21.690Z,16.38
2022-11-20T08:07:48.260Z,16.35
2022-11-20T08:10:17.105Z,18.13
2022-11-20T08:13:07.397Z,17.58
2022-11-20T08:15:34.211Z,18.00
2022-11-20T08:18:29.899Z,18.52
2022-11-20T08:20:52.453Z,14.68
2022-11-20T08:23:18.846Z,16.52
2022-11-20T08:25:50.640Z,13.75
2022-11-20T08:28:21.235Z,13.73
2022-11-20T08:30:48.457Z,15.75
2022-11-20T08:33:15.033Z,14.77
2022-11-20T08:35:42.650Z,15.52
2022-11-20T08:38:09.797Z,15.50
2022-11-20T08:40:36.349Z,15.20
2022-11-20T08:43:02.747Z,16.33
2022-11-20T08:45:33.758Z,15.75
2022-11-20T08:48:02.955Z,11.10
2022-11-20T08:50:32.690Z,14.68
2022-11-20T08:53:08.038Z,17.08
2022-11-20T08:55:36.419Z,14.25
2022-11-20T08:58:06.506Z,15.15
2022-11-20T09:00:34.057Z,15.60
2022-11-20T09:03:01.917Z,18.67
2022-11-20T09:05:28.611Z,17.00
2022-11-20T09:07:59.079Z,19.23
2022-11-20T09:10:26.079Z,18.30
2022-11-20T09:12:53.594Z,18.67
2022-11-20T09:15:40.901Z,21.40
2022-11-20T09:18:07.343Z,20.45
2022-11-20T09:26:12.279Z,19.98
2022-11-20T09:28:38.703Z,25.40
2022-11-20T09:31:25.158Z,20.55
2022-11-20T09:33:51.879Z,26.75
2022-11-20T09:36:19.529Z,22.77
2022-11-20T09:38:46.857Z,28.77
2022-11-20T09:41:41.983Z,25.45
2022-11-20T09:44:33.253Z,21.38
2022-11-20T09:47:09.704Z,25.55
2022-11-20T09:50:00.614Z,21.80
2022-11-20T09:52:33.245Z,22.60
2022-11-20T09:55:02.741Z,23.98
2022-11-20T09:57:39.176Z,23.58
2022-11-20T10:00:07.197Z,20.45
2022-11-20T10:02:52.613Z,22.63
2022-11-20T10:05:35.458Z,19.52
2022-11-20T10:08:25.056Z,21.02
2022-11-20T10:10:57.799Z,24.17
2022-11-20T10:13:57.954Z,24.33
2022-11-20T10:16:43.382Z,18.98
2022-11-20T10:25:09.695Z,21.27
2022-11-20T10:27:39.161Z,17.70
2022-11-20T10:30:17.957Z,23.50
2022-11-20T10:32:48.750Z,19.25
2022-11-20T10:35:21.918Z,22.50
2022-11-20T10:38:01.601Z,23.67
2022-11-20T10:40:44.198Z,23.48
2022-11-20T10:43:16.964Z,16.08
2022-11-20T10:46:06.691Z,20.65
2022-11-20T10:48:33.488Z,23.10
2022-11-20T10:51:05.966Z,21.75
2022-11-20T10:53:54.761Z,24.65
2022-11-20T10:56:34.333Z,23.17
2022-11-20T10:59:31.547Z,20.20
2022-11-20T11:01:59.790Z,20.92
2022-11-20T11:04:43.892Z,22.70
2022-11-20T11:07:18.815Z,22.45
2022-11-20T11:09:50.191Z,22.48
2022-11-20T11:12:16.760Z,23.08
2022-11-20T11:14:45.624Z,18.65
2022-11-20T11:17:32.715Z,21.85
2022-11-20T11:20:12.447Z,19.33
2022-11-20T11:23:06.530Z,24.92
2022-11-20T11:25:35.897Z,22.65
2022-11-20T11:28:18.708Z,18.55
2022-11-20T11:30:45.902Z,18.70
2022-11-20T11:33:24.566Z,20.30
2022-11-20T11:36:00.362Z,19.58
2022-11-20T11:38:43.861Z,22.10
2022-11-20T11:41:16.441Z,19.83
2022-11-20T11:44:11.584Z,21.02
2022-11-20T11:46:38.738Z,23.80
2022-11-20T11:49:11.092Z,20.40
2022-11-20T11:51:47.583Z,21.35
2022-11-20T11:54:25.361Z,23.17
2022-11-20T11:56:52.665Z,22.67
2022-11-20T11:59:43.206Z,26.70
2022-11-20T12:02:25.740Z,27.52
2022-11-20T12:04:58.684Z,25.17
2022-11-20T12:07:46.140Z,26.83
2022-11-20T12:10:30.483Z,25.40
2022-11-20T12:15:35.245Z,23.48
2022-11-20T12:18:02.162Z,27.63
2022-11-20T12:20:42.472Z,29.63
2022-11-20T12:23:21.632Z,31.38
2022-11-20T12:25:54.805Z,29.45
2022-11-20T12:28:28.384Z,31.00
2022-11-20T12:31:27.411Z,33.33
2022-11-20T12:34:03.883Z,32.55
2022-11-20T12:36:44.896Z,32.30
2022-11-20T12:39:20.926Z,33.05
2022-11-20T12:42:32.397Z,33.80
2022-11-20T12:45:13.776Z,36.33
2022-11-20T12:48:01.938Z,32.83
2022-11-20T12:50:42.922Z,36.78
2022-11-20T12:53:31.835Z,33.08
2022-11-20T12:56:36.218Z,32.42
2022-11-20T12:59:19.172Z,33.88
2022-11-20T13:02:15.559Z,33.90
2022-11-20T13:05:06.479Z,32.83
2022-11-20T13:07:35.413Z,36.15
2022-11-20T13:10:04.302Z,31.92
2022-11-20T13:12:43.144Z,33.65
2022-11-20T13:15:54.519Z,30.23
2022-11-20T13:18:22.534Z,35.03
2022-11-20T13:20:50.495Z,30.77
2022-11-20T13:27:09.284Z,30.45
2022-11-20T13:29:38.423Z,30.30
2022-11-20T13:32:14.838Z,30.75
2022-11-20T13:34:57.011Z,28.13
2022-11-20T13:37:37.476Z,28.13
2022-11-20T13:40:10.431Z,29.00
2022-11-20T13:45:32.231Z,23.27
2022-11-20T13:48:03.570Z,24.42
2022-11-20T13:50:47.265Z,24.58
2022-11-20T13:53:23.719Z,23.88
2022-11-20T13:56:00.096Z,22.08
2022-11-20T13:59:10.810Z,21.58
2022-11-20T14:01:44.274Z,22.15
2022-11-20T14:04:17.914Z,21.35
2022-11-20T14:06:47.719Z,20.83
2022-11-20T14:09:33.067Z,22.80
2022-11-20T14:11:59.826Z,24.98
2022-11-20T14:14:31.407Z,22.85
2022-11-20T14:17:07.659Z,23.75
2022-11-20T14:19:34.559Z,21.55
2022-11-20T14:22:20.954Z,23.90
2022-11-20T14:24:48.959Z,24.25
2022-11-20T14:27:18.634Z,22.35
2022-11-20T14:29:47.273Z,24.58
2022-11-20T14:32:17.977Z,23.20
2022-11-20T14:34:46.821Z,23.85
2022-11-20T14:37:20.579Z,24.42
2022-11-20T14:39:53.268Z,21.27
2022-11-20T14:42:26.145Z,21.65
2022-11-20T14:44:56.504Z,22.75
2022-11-20T14:47:29.740Z,22.67
2022-11-20T14:49:57.466Z,23.70
2022-11-20T14:52:26.469Z,22.83
2022-11-20T14:54:55.448Z,23.08
2022-11-20T14:57:21.802Z,22.77
2022-11-20T14:59:48.198Z,20.60
2022-11-20T15:02:14.786Z,23.50
2022-11-20T15:04:52.141Z,21.58
2022-11-20T15:07:37.080Z,19.50
2022-11-20T15:10:06.779Z,20.45
2022-11-20T15:12:35.842Z,19.23
2022-11-20T15:15:03.517Z,19.85
2022-11-20T15:17:32.266Z,20.38
2022-11-20T15:20:00.769Z,17.73
2022-11-20T15:22:27.091Z,17.98
2022-11-20T15:24:53.434Z,18.02
2022-11-20T15:27:19.775Z,17.92
2022-11-20T15:29:46.186Z,17.50
2022-11-20T15:32:13.807Z,16.25
2022-11-20T15:34:40.418Z,16.52
2022-11-20T15:37:06.741Z,17.77
2022-11-20T15:39:33.055Z,18.50
2022-11-20T15:41:59.403Z,16.83
2022-11-20T15:44:25.988Z,16.63
2022-11-20T15:46:52.561Z,19.45
2022-11-20T15:49:23.635Z,17.60
2022-11-20T15:51:50.874Z,19.88
2022-11-20T15:54:21.127Z,18.52
2022-11-20T15:56:49.455Z,16.48
2022-11-20T15:59:16.397Z,17.00
2022-11-20T16:01:43.635Z,19.60
2022-11-20T16:04:16.451Z,17.65
2022-11-20T16:06:43.013Z,19.58
2022-11-20T16:09:10.237Z,16.00
2022-11-20T16:11:37.480Z,18.20
2022-11-20T16:14:25.998Z,17.90
2022-11-20T16:16:52.582Z,18.17
2022-11-20T16:19:19.416Z,16.45
2022-11-20T16:21:45.813Z,19.10
2022-11-20T16:24:13.788Z,17.10
2022-11-20T16:26:40.925Z,18.58
2022-11-20T16:29:07.961Z,18.60
2022-11-20T16:31:34.985Z,19.92
2022-11-20T16:34:10.051Z,18.48
2022-11-20T16:36:40.609Z,19.17
2022-11-20T16:39:06.901Z,20.05
2022-11-20T16:41:35.056Z,19.88
2022-11-20T16:44:03.670Z,15.98
2022-11-20T16:46:31.887Z,19.00
2022-11-20T16:48:59.399Z,17.88
2022-11-20T16:51:26.834Z,20.13
2022-11-20T16:53:55.711Z,16.83
2022-11-20T16:56:25.480Z,18.17
2022-11-20T16:58:54.613Z,17.42
2022-11-20T17:01:23.235Z,17.92
2022-11-20T17:04:01.080Z,18.60
2022-11-20T17:06:35.321Z,19.70
2022-11-20T17:09:02.174Z,16.45
2022-11-20T17:11:29.167Z,19.98
2022-11-20T17:13:57.339Z,17.50
2022-11-20T17:16:24.794Z,15.75
2022-11-20T17:18:51.548Z,19.20
2022-11-20T17:21:19.396Z,18.92
2022-11-20T17:23:46.741Z,23.63
2022-11-20T17:26:17.557Z,20.60
2022-11-20T17:28:45.716Z,21.27
2022-11-20T17:31:15.368Z,21.20
2022-11-20T17:33:43.237Z,21.75
2022-11-20T17:36:14.753Z,21.10
2022-11-20T17:38:41.618Z,22.92
2022-11-20T17:41:13.237Z,22.42
2022-11-20T17:43:40.589Z,19.35
2022-11-20T17:46:08.297Z,19.80
2022-11-20T17:48:35.678Z,20.25
2022-11-20T17:51:04.113Z,18.40
2022-11-20T17:53:34.491Z,20.63
2022-11-20T17:56:19.722Z,21.00
2022-11-20T17:58:46.474Z,21.10
2022-11-20T18:01:13.103Z,20.05
2022-11-20T18:03:39.490Z,20.38
2022-11-20T18:06:10.270Z,19.73
2022-11-20T18:08:36.775Z,19.80
2022-11-20T18:11:17.842Z,20.30
2022-11-20T18:14:05.070Z,18.55
2022-11-20T18:16:35.394Z,23.38
2022-11-20T18:19:02.227Z,22.63
2022-11-20T18:21:29.976Z,20.95
2022-11-20T18:23:57.247Z,22.13
2022-11-20T18:26:24.369Z,21.00
2022-11-20T18:28:51.663Z,21.02
2022-11-20T18:31:18.643Z,21.10
2022-11-20T18:33:45.668Z,21.60
2022-11-20T18:36:12.832Z,23.73
2022-11-20T18:38:40.972Z,19.35
2022-11-20T18:41:08.468Z,21.90
2022-11-20T18:43:53.653Z,19.73
2022-11-20T18:46:21.901Z,22.00
2022-11-20T18:48:48.333Z,21.42
2022-11-20T18:51:16.170Z,20.75
2022-11-20T18:53:47.172Z,20.48
2022-11-20T18:56:14.057Z,22.55
2022-11-20T18:58:41.264Z,21.05
2022-11-20T19:01:08.352Z,21.10
2022-11-20T19:03:35.130Z,17.25
2022-11-20T19:10:54.590Z,24.85
2022-11-20T19:13:20.982Z,18.98
2022-11-20T19:15:47.559Z,17.08
2022-11-20T19:18:13.878Z,18.00
2022-11-20T19:20:40.201Z,18.60
2022-11-20T19:23:06.548Z,18.42
2022-11-20T19:25:37.937Z,16.75
2022-11-20T19:28:04.722Z,16.63
2022-11-20T19:30:31.071Z,19.35
2022-11-20T19:32:58.016Z,21.13
2022-11-20T19:35:24.688Z,19.92
2022-11-20T19:37:51.618Z,20.80
2022-11-20T19:40:17.987Z,23.67
2022-11-20T19:42:47.089Z,19.27
2022-11-20T19:45:13.774Z,19.63
2022-11-20T19:50:26.499Z,19.23
2022-11-20T19:52:57.354Z,26.95
2022-11-20T19:55:25.133Z,21.58
2022-11-20T19:57:51.496Z,23.13
2022-11-20T20:00:23.024Z,24.05
2022-11-20T20:02:53.895Z,22.77
2022-11-20T20:08:00.872Z,20.40
2022-11-20T20:10:27.459Z,22.27
2022-11-20T20:12:54.097Z,19.73
2022-11-20T20:15:20.402Z,21.13
2022-11-20T20:17:46.732Z,21.27
2022-11-20T20:20:13.196Z,21.60
2022-11-20T20:22:39.577Z,23.23
2022-11-20T20:25:06.249Z,20.48
2022-11-20T20:27:32.649Z,20.95
2022-11-20T20:29:58.979Z,19.95
2022-11-20T20:32:25.305Z,20.50
2022-11-20T20:34:51.638Z,18.88
2022-11-20T20:37:17.965Z,18.80
2022-11-20T20:39:44.326Z,18.92
2022-11-20T20:42:10.651Z,20.45
2022-11-20T20:44:55.467Z,18.30
2022-11-20T20:47:21.858Z,17.58
2022-11-20T20:49:48.199Z,19.48
2022-11-20T20:52:14.963Z,19.65
2022-11-20T20:54:42.238Z,19.25
2022-11-20T20:57:08.572Z,18.30
2022-11-20T20:59:34.891Z,18.80
2022-11-20T21:02:01.274Z,20.95
2022-11-20T21:04:27.632Z,17.98
2022-11-20T21:06:54.008Z,17.95
2022-11-20T21:09:21.061Z,18.60
2022-11-20T21:11:47.748Z,18.77
2022-11-20T21:14:14.080Z,21.35
2022-11-20T21:16:43.985Z,20.90
2022-11-20T21:19:11.553Z,19.63
2022-11-20T21:21:56.302Z,22.08
2022-11-20T21:24:23.179Z,17.00
2022-11-20T21:26:52.024Z,20.63
2022-11-20T21:29:19.514Z,21.85
2022-11-20T21:31:46.165Z,20.58
2022-11-20T21:34:14.034Z,19.80
2022-11-20T21:36:40.793Z,22.38
2022-11-20T21:39:07.547Z,22.17
2022-11-20T21:41:34.332Z,22.80
2022-11-20T21:46:50.047Z,21.48
2022-11-20T21:49:18.126Z,19.30
2022-11-20T21:51:44.532Z,19.58
2022-11-20T21:54:11.640Z,22.27
2022-11-20T21:56:38.136Z,25.10
2022-11-20T21:59:04.510Z,23.50
2022-11-20T22:01:31.124Z,23.73
2022-11-20T22:04:02.146Z,22.20
2022-11-20T22:06:33.944Z,21.70
2022-11-20T22:09:01.739Z,19.60
2022-11-20T22:11:28.115Z,20.10
2022-11-20T22:14:13.174Z,20.17
2022-11-20T22:16:39.668Z,23.65
2022-11-20T22:19:06.359Z,22.23
2022-11-20T22:21:33.368Z,21.02
2022-11-20T22:24:00.332Z,21.60
2022-11-20T22:26:29.378Z,22.70
2022-11-20T22:28:57.805Z,21.00
2022-11-20T22:31:26.109Z,21.40
2022-11-20T22:33:53.293Z,22.98
2022-11-20T22:36:25.121Z,22.00
2022-11-20T22:38:52.040Z,22.63
2022-11-20T22:41:20.779Z,19.75
2022-11-20T22:43:47.897Z,20.35
2022-11-20T22:46:17.017Z,19.63
2022-11-20T22:48:55.151Z,20.33
2022-11-20T22:51:27.313Z,22.17
2022-11-20T22:53:53.718Z,20.15
2022-11-20T22:56:20.890Z,19.10
2022-11-20T22:58:49.650Z,19.75
2022-11-20T23:01:20.595Z,19.83
2022-11-20T23:03:49.345Z,19.95
2022-11-20T23:06:18.347Z,19.63
2022-11-20T23:08:45.580Z,19.92
2022-11-20T23:11:25.487Z,21.05
2022-11-20T23:14:03.622Z,19.15
2022-11-20T23:16:31.135Z,22.00
2022-11-20T23:18:59.965Z,19.23
2022-11-20T23:21:26.929Z,19.70
2022-11-20T23:23:55.865Z,20.00
2022-11-20T23:26:24.416Z,21.20
2022-11-20T23:28:53.549Z,21.20
2022-11-20T23:31:20.128Z,21.90
2022-11-20T23:33:46.505Z,20.65
2022-11-20T23:36:13.608Z,19.70
2022-11-20T23:38:40.528Z,20.30
2022-11-20T23:41:07.265Z,19.30
2022-11-20T23:43:34.352Z,19.08
2022-11-20T23:46:01.829Z,17.73
2022-11-20T23:48:30.893Z,22.50
2022-11-20T23:50:57.906Z,18.60
2022-11-20T23:53:24.805Z,18.83
2022-11-20T23:55:53.843Z,20.58
2022-11-20T23:58:21.319Z,19.00
